createdAt,value
2023-01-07T00:03:32.385Z,5.78
2023-01-07T00:08:39.451Z,5.89
2023-01-07T00:13:46.330Z,6.01
2023-01-07T00:18:53.492Z,6.07
2023-01-07T00:24:03.152Z,6.12
2023-01-07T00:29:06.096Z,6.20
2023-01-07T00:34:09.551Z,6.25
2023-01-07T00:39:29.541Z,6.33
2023-01-07T00:44:31.903Z,6.42
2023-01-07T00:49:33.624Z,6.44
2023-01-07T00:54:42.699Z,6.49
2023-01-07T00:59:46.783Z,6.56
2023-01-07T01:04:51.735Z,6.51
2023-01-07T01:09:53.482Z,6.48
2023-01-07T01:15:00.257Z,6.49
2023-01-07T01:20:06.551Z,6.44
2023-01-07T01:25:13.376Z,6.47
2023-01-07T01:30:17.581Z,6.56
2023-01-07T01:35:21.930Z,6.68
2023-01-07T01:40:29.570Z,6.80
2023-01-07T01:45:31.356Z,6.89
2023-01-07T01:50:38.582Z,6.95
2023-01-07T01:55:49.565Z,7.01
2023-01-07T02:00:56.074Z,7.03
2023-01-07T02:06:00.579Z,7.11
2023-01-07T02:11:21.616Z,7.17
2023-01-07T02:16:35.949Z,7.24
2023-01-07T02:22:04.814Z,7.30
2023-01-07T02:27:14.129Z,7.36
2023-01-07T02:32:28.648Z,7.42
2023-01-07T02:38:14.158Z,7.51
2023-01-07T02:43:41.110Z,7.61
2023-01-07T02:48:45.704Z,7.72
2023-01-07T02:53:48.864Z,7.79
2023-01-07T02:59:07.317Z,7.87
2023-01-07T03:04:19.753Z,7.94
2023-01-07T03:09:41.684Z,8.04
2023-01-07T03:14:54.776Z,8.11
2023-01-07T03:20:04.552Z,8.17
2023-01-07T03:25:07.294Z,8.20
2023-01-07T03:30:14.902Z,8.24
2023-01-07T03:35:23.705Z,8.28
2023-01-07T03:40:29.844Z,8.33
2023-01-07T03:45:36.622Z,8.38
2023-01-07T03:50:38.923Z,8.47
2023-01-07T03:55:43.930Z,8.55
2023-01-07T04:00:45.738Z,8.64
2023-01-07T04:05:53.703Z,8.71
2023-01-07T04:11:01.186Z,8.76
2023-01-07T04:16:10.549Z,8.81
2023-01-07T04:21:13.277Z,8.90
2023-01-07T04:26:17.036Z,8.96
2023-01-07T04:31:23.772Z,9.01
2023-01-07T04:36:31.914Z,9.06
2023-01-07T04:41:38.841Z,9.09
2023-01-07T04:46:40.606Z,9.11
2023-01-07T04:51:43.636Z,9.15
2023-01-07T04:56:45.826Z,9.19
2023-01-07T05:01:51.124Z,9.21
2023-01-07T05:06:53.116Z,9.24
2023-01-07T05:11:56.097Z,9.22
2023-01-07T05:17:00.858Z,9.24
2023-01-07T05:22:07.418Z,9.25
2023-01-07T05:27:16.416Z,9.30
2023-01-07T05:32:20.707Z,9.30
2023-01-07T05:37:29.536Z,9.30
2023-01-07T05:42:35.478Z,9.32
2023-01-07T05:47:37.553Z,9.32
2023-01-07T05:52:40.215Z,9.31
2023-01-07T05:57:41.921Z,9.32
2023-01-07T06:02:44.848Z,9.33
2023-01-07T06:07:47.102Z,9.34
2023-01-07T06:12:51.417Z,9.34
2023-01-07T06:17:53.413Z,9.36
2023-01-07T06:22:55.415Z,9.37
2023-01-07T06:28:00.082Z,9.37
2023-01-07T06:33:05.577Z,9.39
2023-01-07T06:38:07.492Z,9.40
2023-01-07T06:43:10.421Z,9.40
2023-01-07T06:48:15.171Z,9.40
2023-01-07T06:53:21.826Z,9.43
2023-01-07T06:58:23.550Z,9.44
2023-01-07T07:03:30.200Z,9.46
2023-01-07T07:08:34.217Z,9.47
2023-01-07T07:13:36.322Z,9.46
2023-01-07T07:18:38.032Z,9.47
2023-01-07T07:23:43.243Z,9.51
2023-01-07T07:28:45.092Z,9.48
2023-01-07T07:33:51.373Z,9.49
2023-01-07T07:38:57.664Z,9.52
2023-01-07T07:44:02.288Z,9.56
2023-01-07T07:49:06.585Z,9.60
2023-01-07T07:54:13.512Z,9.59
2023-01-07T07:59:15.258Z,9.59
2023-01-07T08:04:19.383Z,9.59
2023-01-07T08:09:23.672Z,9.59
2023-01-07T08:14:26.210Z,9.60
2023-01-07T08:19:29.689Z,9.61
2023-01-07T08:24:31.441Z,9.74
2023-01-07T08:29:33.543Z,9.78
2023-01-07T08:34:35.439Z,9.71
2023-01-07T08:39:37.513Z,9.71
2023-01-07T08:44:39.542Z,9.69
2023-01-07T08:49:43.455Z,9.68
2023-01-07T08:54:48.102Z,9.78
2023-01-07T08:59:51.283Z,10.07
2023-01-07T09:04:53.090Z,9.96
2023-01-07T09:09:56.520Z,9.90
2023-01-07T09:14:59.290Z,9.85
2023-01-07T09:20:03.785Z,9.83
2023-01-07T09:25:13.693Z,9.81
2023-01-07T09:30:18.259Z,9.81
2023-01-07T09:35:23.038Z,9.83
2023-01-07T09:40:31.729Z,9.89
2023-01-07T09:45:41.399Z,9.95
2023-01-07T09:50:52.624Z,10.08
2023-01-07T09:56:11.422Z,10.14
2023-01-07T10:01:40.861Z,10.15
2023-01-07T10:06:45.424Z,10.11
2023-01-07T10:12:31.456Z,10.09
2023-01-07T10:17:59.015Z,9.98
2023-01-07T10:23:15.761Z,10.03
2023-01-07T10:28:28.217Z,10.06
2023-01-07T10:33:34.494Z,10.06
2023-01-07T10:38:43.444Z,10.08
2023-01-07T10:43:56.999Z,10.07
2023-01-07T10:49:04.993Z,10.16
2023-01-07T10:54:25.192Z,10.30
2023-01-07T10:59:31.192Z,10.36
2023-01-07T11:04:35.632Z,10.35
2023-01-07T11:09:42.278Z,10.39
2023-01-07T11:14:46.943Z,10.49
2023-01-07T11:19:52.230Z,10.58
2023-01-07T11:24:58.307Z,10.41
2023-01-07T11:30:21.982Z,10.39
2023-01-07T11:35:24.194Z,10.49
2023-01-07T11:40:31.726Z,10.55
2023-01-07T11:46:19.283Z,10.55
2023-01-07T11:51:27.621Z,10.58
2023-01-07T11:56:34.059Z,10.59
2023-01-07T12:01:43.500Z,10.60
2023-01-07T12:06:50.026Z,10.57
2023-01-07T12:11:56.426Z,10.49
2023-01-07T12:17:18.810Z,10.46
2023-01-07T12:22:58.440Z,10.40
2023-01-07T12:28:18.918Z,10.36
2023-01-07T12:33:26.810Z,10.36
2023-01-07T12:38:43.117Z,10.33
2023-01-07T12:43:57.806Z,10.31
2023-01-07T12:49:06.569Z,10.30
2023-01-07T12:54:38.787Z,10.51
2023-01-07T12:59:48.483Z,10.43
2023-01-07T13:04:58.704Z,10.38
2023-01-07T13:10:04.027Z,10.36
2023-01-07T13:15:30.108Z,10.35
2023-01-07T13:20:44.840Z,10.34
2023-01-07T13:26:00.795Z,10.34
2023-01-07T13:31:31.126Z,10.33
2023-01-07T13:36:33.964Z,10.31
2023-01-07T13:42:09.386Z,10.29
2023-01-07T13:47:14.993Z,10.26
2023-01-07T13:52:24.599Z,10.24
2023-01-07T13:57:31.168Z,10.20
2023-01-07T14:02:58.289Z,10.19
2023-01-07T14:08:04.540Z,10.17
2023-01-07T14:13:33.145Z,10.17
2023-01-07T14:18:58.997Z,10.15
2023-01-07T14:24:18.772Z,10.08
2023-01-07T14:29:45.789Z,9.98
2023-01-07T14:35:00.099Z,9.89
2023-01-07T14:40:40.523Z,9.77
2023-01-07T14:45:42.436Z,9.62
2023-01-07T14:50:54.771Z,9.44
2023-01-07T14:56:08.660Z,9.33
2023-01-07T15:06:41.935Z,9.13
2023-01-07T15:12:04.455Z,9.04
2023-01-07T15:17:13.070Z,9.01
2023-01-07T15:22:33.593Z,8.84
2023-01-07T15:27:59.819Z,8.78
2023-01-07T15:33:14.549Z,8.73
2023-01-07T15:38:46.837Z,8.64
2023-01-07T15:43:49.452Z,8.59
2023-01-07T15:49:27.888Z,8.55
2023-01-07T15:54:34.930Z,8.48
2023-01-07T15:59:43.033Z,8.44
2023-01-07T16:04:48.388Z,8.43
2023-01-07T16:09:52.794Z,8.34
2023-01-07T16:15:31.033Z,8.31
2023-01-07T16:20:35.806Z,8.20
2023-01-07T16:25:47.480Z,8.19
2023-01-07T16:30:53.807Z,8.15
2023-01-07T16:35:58.939Z,8.12
2023-01-07T16:41:05.974Z,8.08
2023-01-07T16:46:22.710Z,7.94
2023-01-07T16:51:54.089Z,7.80
2023-01-07T16:57:04.138Z,7.68
2023-01-07T17:02:18.028Z,7.61
2023-01-07T17:07:28.735Z,7.61
2023-01-07T17:12:40.150Z,7.61
2023-01-07T17:17:41.996Z,7.67
2023-01-07T17:22:45.997Z,7.63
2023-01-07T17:27:56.545Z,7.62
2023-01-07T17:33:00.661Z,7.67
2023-01-07T17:38:12.795Z,7.79
2023-01-07T17:43:35.310Z,7.83
2023-01-07T17:48:39.810Z,7.79
2023-01-07T17:53:46.679Z,7.74
2023-01-07T17:58:51.230Z,7.76
2023-01-07T18:03:54.176Z,7.76
2023-01-07T18:08:57.426Z,7.70
2023-01-07T18:13:59.947Z,7.72
2023-01-07T18:19:03.998Z,7.68
2023-01-07T18:24:12.448Z,7.67
2023-01-07T18:29:16.429Z,7.62
2023-01-07T18:34:20.468Z,7.61
2023-01-07T18:39:22.409Z,7.68
2023-01-07T18:44:28.856Z,7.72
2023-01-07T18:49:34.127Z,7.76
2023-01-07T18:54:38.077Z,7.81
2023-01-07T18:59:44.784Z,7.82
2023-01-07T19:04:48.416Z,7.84
2023-01-07T19:09:50.233Z,7.84
2023-01-07T19:14:56.995Z,7.84
2023-01-07T19:19:58.743Z,7.84
2023-01-07T19:25:01.182Z,7.81
2023-01-07T19:30:05.755Z,7.75
2023-01-07T19:35:12.620Z,7.73
2023-01-07T19:40:18.820Z,7.69
2023-01-07T19:45:20.568Z,7.67
2023-01-07T19:50:27.215Z,7.68
2023-01-07T19:55:29.012Z,7.69
2023-01-07T20:00:35.974Z,7.70
2023-01-07T20:05:41.534Z,7.70
2023-01-07T20:10:46.812Z,7.77
2023-01-07T20:15:48.647Z,7.79
2023-01-07T20:21:01.337Z,7.81
2023-01-07T20:26:07.750Z,7.84
2023-01-07T20:31:14.541Z,7.81
2023-01-07T20:36:27.086Z,7.80
2023-01-07T20:41:28.847Z,7.83
2023-01-07T20:46:31.511Z,7.91
2023-01-07T20:51:36.834Z,7.93
2023-01-07T20:56:38.766Z,7.91
2023-01-07T21:01:43.086Z,7.96
2023-01-07T21:06:46.141Z,7.99
2023-01-07T21:11:50.070Z,7.98
2023-01-07T21:16:56.639Z,8.01
2023-01-07T21:22:01.212Z,8.01
2023-01-07T21:27:05.329Z,8.04
2023-01-07T21:32:07.019Z,8.03
2023-01-07T21:37:11.162Z,8.03
2023-01-07T21:42:17.646Z,8.03
2023-01-07T21:47:21.476Z,8.07
2023-01-07T21:52:23.864Z,8.08
2023-01-07T21:57:28.114Z,8.13
2023-01-07T22:02:32.415Z,8.24
2023-01-07T22:07:34.420Z,8.52
2023-01-07T22:12:42.401Z,8.50
2023-01-07T22:17:48.243Z,8.46
2023-01-07T22:22:52.847Z,8.48
2023-01-07T22:28:02.170Z,8.45
2023-01-07T22:33:06.900Z,8.48
2023-01-07T22:38:11.868Z,8.46
2023-01-07T22:43:19.838Z,8.50
2023-01-07T22:48:27.334Z,8.51
2023-01-07T22:53:30.231Z,8.55
2023-01-07T22:58:32.096Z,8.58
2023-01-07T23:03:39.032Z,8.58
2023-01-07T23:08:41.924Z,8.62
2023-01-07T23:13:48.153Z,8.56
2023-01-07T23:18:54.560Z,8.62
2023-01-07T23:23:59.093Z,8.64
2023-01-07T23:29:00.926Z,8.66
2023-01-07T23:34:08.176Z,8.70
2023-01-07T23:39:12.990Z,8.74
2023-01-07T23:44:14.947Z,8.77
2023-01-07T23:49:18.736Z,8.81
2023-01-07T23:54:25.276Z,8.90
2023-01-07T23:59:29.289Z,8.93
